LHPP/PEV METAR and TAF weather

Enter ICAO airport designator
Station Type Date Time Source
LHPP METAR 2020/07/11 17:45 UTC NOAA

LHPP 111745Z 35015G29KT CAVOK 22/12 Q1015


Station Type Date Time Source
LHPP Decoded METAR 2020/07/11 17:45 UTC NOAA

Pecs / Pogany, Hungary (LHPP) 46-06N 018-14E 203M
Jul 11, 2020 - 01:45 PM EDT / 2020.07.11 1745 UTC
Wind: from the N (350 degrees) at 17 MPH (15 KT) gusting to 33 MPH (29 KT):0
Visibility: greater than 7 mile(s):0
Temperature: 71 F (22 C)
Dew Point: 53 F (12 C)
Relative Humidity: 53%
Pressure (altimeter): 29.97 in. Hg (1015 hPa)
ob: LHPP 111745Z 35015G29KT CAVOK 22/12 Q1015
cycle: 18

Station Type Date Time Source
LHPP TAF 2017/08/21 15:50 UTC NOAA

TAF LHPP 211700Z 2115/2214 CNL

Example: see airport list